Scranton, PA

9:24 AM EST en Diciembre 18, 2014 (GMT -0500)
Wilkes-Barre-Scranton International | Change Station
CLOSE
Current Station
Aeropuerto
Location: Avoca,
Altura: 961 ft
Estaciones meteorológicas cercanas

Alt 961 ft 41.33 °N, 75.72 °W | Updated 30 minutes ago

Nublado
Nublado
34 ° F
Sensación térmica 23 ° F
N
18
Viento Variable Viento desde NO

Hoy
Alta -- | Baja -- ° F
--% Posibilidad de precipitaciones
Ayer
Alta -- | Baja -- ° F
Precip. -- pul
7:23 AM 4:35 PM
Creciente menguante, 14% visible
Presión 30.04 pul
Visibilidad 10.0 Millas
Nubes Nublado 2900 ft
Vientos helados 23 ° F
Punto de rocío 22 ° F
Humedad 61%
Precipitaciones 0.03 pul
Espesor de la nieve No disponible.
UV 0 de una escala de 12
Polen .10 de una escala de 12
Calidad del aire No disponible.
Flu Activity No disponible.
METAR KAVP 181354Z 31016KT 10SM OVC029 01/M06 A3002 RMK AO2 PK WND 31026/1309 SLP170 T00111056

More Conditions Fewer Conditions

Presión 30.04 pul
Visibilidad 10.0 Millas
Nubes Nublado 2900 ft
Vientos helados 23 ° F
Punto de rocío 22 ° F
Humedad 61%
Precipitaciones 0.03 pul
Espesor de la nieve No disponible.
UV 0 de una escala de 12
Polen .10 de una escala de 12
Calidad del aire No disponible.
Flu Activity No disponible.
METAR KAVP 181354Z 31016KT 10SM OVC029 01/M06 A3002 RMK AO2 PK WND 31026/1309 SLP170 T00111056

More Conditions Fewer Conditions

10-Day Weather Forecast

Almanac

Astronomía

Dec. 18, 2014 Salida Puesta
Hora real
Crepúsculo civil
Crepúsculo náutico
Crepúsculo astronómico
Luna
Horas de luz
Horas de luz
Tomorrow will be .
, % of the Moon is Illuminated

Extremos de hoy

Máximos del estado Bajos del estado

Community

WunderPhotos

Upload Photos

1,778,929 ¡fotos cargadas!

WunderBlogs® & News

Nearby

Calidad del aire

  Calidad del aire Índice AQ Contaminante
Not available.

Grosos de nieve

Estación Profundido Altura

Actividad de terremotos

Ciudad Distance Mag. Tiempo y dato
Magnitud mínima muestra es 2,5.

Temperaturas de aguas costeras

Lugar Temperatura

Estaciones meteorológicas cercanas